Date,TemperatureHighF,TemperatureAvgF,TemperatureLowF,DewpointHighF,DewpointAvgF,DewpointLowF,HumidityHigh,HumidityAvg,HumidityLow,PressureMaxIn,PressureMinIn,WindSpeedMaxMPH,WindSpeedAvgMPH,GustSpeedMaxMPH,PrecipitationSumIn
2013-1-1,13.0,4.6,-2.0,4.0,-0.3,-5.0,92,80,67,30.20,30.09,4,1,9,0.00
2013-1-2,22.0,16.2,4.0,15.0,10.2,-1.0,92,77,59,30.10,30.00,7,2,12,0.00
2013-1-3,24.0,20.0,11.0,19.0,15.7,7.0,85,83,81,30.16,30.00,7,2,12,0.00
2013-1-4,28.0,16.4,8.0,19.0,11.5,4.0,89,81,68,30.14,30.02,7,2,16,0.03
2013-1-5,34.0,21.9,9.0,32.0,19.0,6.0,93,88,80,30.17,29.81,9,3,15,0.02
2013-1-6,34.0,24.5,13.0,31.0,20.0,10.0,90,83,74,30.23,29.81,7,3,16,0.03
2013-1-7,34.0,22.9,10.0,26.0,17.9,7.0,90,81,66,30.22,29.98,14,4,24,0.02
2013-1-8,37.0,28.8,16.0,31.0,24.8,14.0,93,85,75,30.06,29.88,9,2,18,0.21
2013-1-9,39.0,32.7,22.0,32.0,26.1,17.0,86,77,61,30.41,29.86,11,4,20,0.17
2013-1-10,40.0,31.6,19.0,33.0,27.0,16.0,94,83,71,30.45,29.83,5,1,10,0.33
2013-1-11,43.0,37.9,34.0,42.0,36.9,33.0,97,96,94,29.84,29.56,7,1,12,0.35
2013-1-12,45.0,34.3,23.0,43.0,28.6,16.0,97,80,71,29.96,29.56,11,5,23,0.01
2013-1-13,22.0,16.1,13.0,16.0,9.3,6.0,80,74,68,30.15,29.87,9,4,18,0.00
2013-1-14,23.0,13.4,7.0,11.0,6.6,2.0,85,74,58,30.40,30.15,7,2,15,0.00
2013-1-15,28.0,17.0,8.0,16.0,10.8,5.0,89,77,58,30.37,30.02,10,2,19,0.00
2013-1-16,32.0,24.2,14.0,28.0,18.6,9.0,88,79,67,30.03,29.71,11,4,22,0.00
2013-1-17,26.0,18.6,14.0,17.0,7.9,2.0,76,63,50,30.35,30.02,7,2,14,0.00
2013-1-18,39.0,28.4,12.0,32.0,22.5,6.0,84,78,72,30.36,29.76,16,6,31,0.00
2013-1-19,43.0,34.8,14.0,35.0,27.8,2.0,88,76,47,29.90,29.59,16,5,32,0.00
2013-1-20,13.0,8.8,5.0,2.0,-1.1,-3.0,72,63,52,30.26,29.90,11,4,28,0.00
2013-1-21,8.0,0.8,-5.0,2.0,-7.5,-14.0,80,67,57,30.23,30.07,10,4,23,0.00
2013-1-22,5.0,-1.6,-7.0,-5.0,-10.3,-15.0,72,66,57,30.30,30.22,8,3,16,0.00
2013-1-23,16.0,9.2,0.0,12.0,3.0,-7.0,85,76,66,30.37,30.03,8,2,20,0.00
2013-1-24,15.0,6.1,-2.0,9.0,-1.5,-8.0,76,70,62,30.60,30.29,6,1,14,0.00
2013-1-25,23.0,18.0,14.0,17.0,12.1,6.0,87,77,61,30.29,29.88,10,3,16,0.00
2013-1-26,23.0,15.0,6.0,14.0,8.0,2.0,83,74,62,30.35,30.14,4,1,10,0.01
2013-1-27,32.0,26.6,22.0,31.0,21.8,13.0,100,82,69,30.29,29.82,7,2,13,0.01
2013-1-28,37.0,33.3,31.0,33.0,31.3,29.0,96,92,84,29.92,29.74,4,1,10,0.33
2013-1-29,50.0,40.5,34.0,49.0,39.4,33.0,98,96,91,29.75,29.45,5,2,12,1.04
2013-1-30,35.0,26.6,14.0,34.0,25.2,11.0,97,94,87,29.53,29.28,8,3,18,0.28
2013-1-31,15.0,7.3,0.0,12.0,2.9,-5.0,87,82,79,30.06,29.53,8,5,19,0.00
2013-2-1,4.0,-0.6,-6.0,1.0,-5.8,-11.0,86,78,72,30.25,30.06,7,3,15,0.00
2013-2-2,11.0,5.5,1.0,4.0,0.9,-3.0,97,81,72,30.08,29.97,5,1,10,0.00
2013-2-3,18.0,10.1,0.0,11.0,5.2,-4.0,88,80,71,29.98,29.88,10,2,16,0.00
2013-2-4,15.0,11.3,5.0,10.0,5.9,0.0,88,79,62,29.97,29.89,6,2,11,0.00
2013-2-5,27.0,16.2,1.0,23.0,12.0,-3.0,90,83,76,30.05,29.71,8,2,14,0.00
2013-2-6,31.0,12.9,2.0,26.0,9.6,-1.0,99,87,80,30.16,30.03,1,0,8,0.00
2013-2-7,33.0,29.6,20.0,31.0,27.6,18.0,94,92,85,30.05,29.89,7,1,14,0.10
2013-2-8,24.0,18.4,7.0,19.0,15.0,4.0,92,87,81,30.35,30.04,6,2,13,0.06
2013-2-9,27.0,19.7,3.0,24.0,16.8,0.0,93,88,84,30.36,30.04,9,3,19,0.01
2013-2-10,40.0,32.2,21.0,39.0,30.6,19.0,100,94,90,30.04,29.34,10,2,22,0.19
2013-2-11,37.0,30.7,26.0,35.0,26.2,20.0,91,83,76,29.93,29.35,11,7,26,0.03
2013-2-12,27.0,22.8,18.0,21.0,17.6,15.0,90,80,73,30.03,29.82,6,3,19,0.00
2013-2-13,36.0,26.1,15.0,29.0,22.4,13.0,93,86,74,29.82,29.63,8,1,12,0.00
2013-2-14,34.0,31.8,25.0,32.0,28.2,21.0,94,87,75,29.96,29.52,9,2,20,0.11
2013-2-15,25.0,18.2,11.0,22.0,9.5,3.0,88,69,53,30.15,29.96,6,3,13,0.01
2013-2-16,17.0,10.7,4.0,4.0,1.2,-2.0,78,65,50,30.14,30.09,7,1,13,0.00
2013-2-17,24.0,12.1,-2.0,15.0,3.5,-6.0,85,69,54,30.16,29.88,8,1,14,0.00
2013-2-18,42.0,32.3,24.0,36.0,26.3,15.0,93,79,69,29.88,29.41,8,3,15,0.10
2013-2-19,26.0,12.9,7.0,24.0,8.1,0.0,92,80,70,30.11,29.47,9,5,18,0.10
2013-2-20,22.0,12.4,4.0,11.0,4.8,-2.0,78,71,61,30.34,30.11,7,2,13,0.04
2013-2-21,25.0,17.0,8.0,22.0,13.1,3.0,92,84,74,30.40,30.05,9,3,22,0.01
2013-2-22,30.0,26.1,22.0,28.0,23.9,20.0,93,91,83,30.05,29.74,9,2,21,0.08
2013-2-23,30.0,25.2,20.0,23.0,21.0,16.0,90,84,76,29.88,29.78,8,2,13,0.07
2013-2-24,34.0,24.2,16.0,26.0,19.7,13.0,92,83,73,30.09,29.88,5,1,9,0.37
2013-2-25,37.0,26.8,17.0,28.0,21.9,15.0,91,82,66,30.13,30.01,4,0,8,0.28
2013-2-26,33.0,29.7,25.0,28.0,25.9,22.0,94,86,75,30.02,29.61,13,6,30,0.20
2013-2-27,31.0,29.4,27.0,29.0,27.7,25.0,94,93,92,29.75,29.59,8,4,18,0.02
2013-2-28,33.0,29.2,23.0,29.0,24.8,18.0,94,84,76,30.11,29.75,8,4,16,0.02
2013-3-1,27.0,22.0,15.0,20.0,16.9,9.0,88,81,70,30.22,30.09,10,2,16,0.01
2013-3-2,25.0,16.2,9.0,15.0,9.7,4.0,85,75,65,30.21,30.12,6,2,14,0.01
2013-3-3,26.0,17.6,6.0,12.0,7.0,3.0,86,64,45,30.12,30.06,5,1,9,0.03
2013-3-4,33.0,22.0,10.0,24.0,15.8,5.0,85,77,66,30.09,30.01,7,2,14,0.01
2013-3-5,30.0,26.7,24.0,26.0,23.5,22.0,93,88,76,30.06,29.86,9,4,19,0.01
2013-3-6,31.0,27.6,24.0,27.0,24.1,20.0,91,87,81,30.27,30.06,6,3,12,0.08
2013-3-7,32.0,23.2,13.0,23.0,17.5,10.0,89,79,67,30.39,30.27,5,1,8,0.25
2013-3-8,37.0,26.9,15.0,28.0,21.5,12.0,90,80,68,30.42,30.25,9,2,15,0.03
2013-3-9,40.0,33.9,27.0,34.0,29.5,23.0,93,84,72,30.25,29.76,6,1,15,0.03
2013-3-10,39.0,36.2,34.0,38.0,34.9,33.0,96,95,93,29.79,29.60,11,3,22,0.96
2013-3-11,34.0,32.1,29.0,33.0,30.9,25.0,96,95,90,29.70,29.51,8,2,15,0.54
2013-3-12,32.0,28.1,24.0,25.0,22.3,18.0,91,79,65,29.96,29.70,8,4,19,0.03
2013-3-13,33.0,24.6,18.0,19.0,13.4,10.0,81,63,41,30.26,29.96,9,4,18,0.01
2013-3-14,33.0,25.4,16.0,25.0,17.9,10.0,88,73,60,30.26,30.01,8,2,13,0.01
2013-3-15,34.0,29.5,25.0,32.0,26.7,22.0,93,90,85,30.01,29.80,6,2,12,0.05
2013-3-16,30.0,24.6,19.0,25.0,19.4,15.0,92,81,66,30.10,29.79,7,3,14,0.02
2013-3-17,31.0,21.6,14.0,19.0,12.9,6.0,79,69,58,30.24,29.98,7,3,14,0.01
2013-3-18,31.0,26.6,17.0,29.0,22.9,11.0,91,86,76,29.98,29.52,10,2,23,0.17
2013-3-19,29.0,19.4,13.0,14.0,9.7,7.0,79,67,48,29.98,29.66,11,6,23,0.02
2013-3-20,20.0,14.3,8.0,8.0,3.3,-2.0,65,61,54,30.02,29.97,11,4,18,0.02
2013-3-21,29.0,17.9,9.0,14.0,7.7,2.0,75,64,51,30.01,29.96,7,2,12,0.00
2013-3-22,34.0,21.6,13.0,18.0,12.3,6.0,76,67,49,30.04,29.98,4,1,8,0.00
2013-3-23,36.0,26.3,17.0,22.0,17.6,13.0,85,70,54,30.11,30.03,6,1,10,0.00
2013-3-24,30.0,28.7,27.0,27.0,24.3,21.0,91,84,75,30.04,29.77,9,4,19,0.04
2013-3-25,34.0,29.4,22.0,26.0,22.8,17.0,84,76,69,30.06,29.80,7,3,15,0.01
2013-3-26,41.0,35.0,30.0,29.0,25.7,23.0,77,69,58,30.21,30.06,6,2,11,0.00
2013-3-27,42.0,35.2,28.0,27.0,23.8,21.0,75,64,46,30.28,30.21,6,2,12,0.01
2013-3-28,44.0,34.0,26.0,27.0,21.8,19.0,75,62,40,30.31,30.25,6,1,10,0.00
2013-3-29,45.0,32.7,23.0,28.0,23.2,19.0,87,69,48,30.30,30.19,4,0,7,0.00
2013-3-30,51.0,39.6,31.0,40.0,30.9,-99.9,90,74,62,30.19,29.78,11,2,16,0.02
2013-3-31,46.0,38.5,32.0,40.0,33.1,20.0,93,82,60,29.87,29.68,10,4,19,0.01
2013-4-1,35.0,29.6,25.0,21.0,15.6,12.0,70,56,42,30.14,29.87,8,4,18,0.01
2013-4-2,38.0,30.4,23.0,18.0,15.8,13.0,70,55,35,30.28,30.14,8,3,16,0.00
2013-4-3,42.0,32.9,23.0,23.0,17.8,13.0,76,55,36,30.44,30.24,8,2,12,0.00
2013-4-4,56.0,41.2,29.0,37.0,28.0,20.0,71,60,45,30.24,29.92,10,4,22,0.00
2013-4-5,45.0,36.9,28.0,28.0,24.6,21.0,78,62,43,30.23,30.01,7,2,11,0.00
2013-4-6,58.0,44.7,33.0,49.0,35.0,20.0,91,69,52,30.13,29.51,15,4,26,0.05
2013-4-7,51.0,42.3,36.0,48.0,35.1,30.0,91,76,60,29.93,29.52,10,3,25,0.04
2013-4-8,47.0,40.7,35.0,43.0,36.9,30.0,93,86,79,29.98,29.61,8,2,19,0.46
2013-4-9,39.0,37.2,35.0,38.0,35.5,33.0,95,94,90,30.02,29.87,9,4,18,1.10
2013-4-10,37.0,33.9,31.0,34.0,31.7,29.0,94,92,85,30.08,29.88,12,5,21,1.04
2013-4-11,37.0,35.3,34.0,35.0,33.1,31.0,94,93,89,29.92,29.56,14,7,25,0.37
2013-4-12,39.0,34.9,33.0,36.0,32.7,30.0,95,91,84,29.75,29.50,5,2,11,0.19
2013-4-13,36.0,34.1,30.0,30.0,27.7,25.0,91,78,67,29.96,29.74,8,4,16,0.04
2013-4-14,52.0,37.0,29.0,46.0,32.5,24.0,89,84,75,29.98,29.55,9,3,18,0.07
2013-4-15,60.0,48.1,41.0,51.0,42.8,37.0,96,83,51,29.93,29.53,14,4,26,0.67
2013-4-16,51.0,41.7,34.0,37.0,32.5,28.0,84,70,50,30.27,29.92,8,2,15,0.08
2013-4-17,42.0,39.7,37.0,40.0,35.7,32.0,92,85,75,30.31,29.86,10,3,20,0.13
2013-4-18,54.0,44.6,39.0,53.0,43.0,34.0,96,94,84,29.88,29.28,14,3,33,0.74
2013-4-19,39.0,34.9,30.0,34.0,28.1,21.0,84,76,64,29.86,29.31,12,8,31,0.02
2013-4-20,44.0,34.3,27.0,25.0,18.2,14.0,76,54,30,30.37,29.86,9,3,21,0.01
2013-4-21,51.0,39.5,30.0,34.0,28.0,24.0,81,64,46,30.47,30.24,9,2,18,0.00
2013-4-22,66.0,52.0,41.0,45.0,38.1,32.0,75,60,44,30.24,29.98,9,4,19,0.00
2013-4-23,52.0,43.3,38.0,47.0,36.0,29.0,90,76,60,29.98,29.85,9,3,18,0.01
2013-4-24,52.0,42.2,33.0,32.0,26.7,23.0,77,56,34,30.00,29.93,7,3,16,0.01
2013-4-25,51.0,43.5,36.0,36.0,31.9,28.0,89,65,44,30.25,29.93,9,4,23,0.04
2013-4-26,68.0,52.8,36.0,48.0,39.1,29.0,77,61,45,30.25,30.10,16,6,28,0.00
2013-4-27,65.0,55.7,45.0,50.0,46.0,41.0,90,71,51,30.21,29.99,9,3,15,0.00
2013-4-28,72.0,58.4,44.0,50.0,44.2,39.0,84,62,39,29.99,29.77,6,1,14,0.00
2013-4-29,69.0,59.1,51.0,58.0,52.4,48.0,91,79,58,29.82,29.70,8,2,16,0.02
2013-4-30,85.0,70.7,59.0,63.0,56.5,52.0,93,65,34,29.86,29.66,17,6,28,0.14
2013-5-1,80.0,66.7,54.0,60.0,52.6,44.0,72,61,47,30.21,29.86,7,3,18,0.08
2013-5-2,54.0,45.4,37.0,46.0,38.8,34.0,90,78,66,30.28,30.17,10,4,20,0.24
2013-5-3,47.0,40.6,35.0,45.0,38.5,32.0,94,93,89,30.22,29.98,9,3,16,0.58
2013-5-4,72.0,57.2,46.0,54.0,48.4,44.0,94,75,46,30.04,29.96,7,2,15,0.04
2013-5-5,73.0,60.4,47.0,51.0,46.3,42.0,89,62,38,30.06,29.99,7,2,13,0.00
2013-5-6,75.0,61.2,48.0,51.0,44.6,40.0,78,57,31,30.07,29.97,6,1,10,0.00
2013-5-7,79.0,65.4,52.0,47.0,43.0,39.0,73,47,26,30.06,29.97,4,1,0,0.00
2013-5-8,81.0,65.9,49.0,51.0,46.6,41.0,82,54,25,30.03,29.93,5,1,7,0.00
2013-5-9,68.0,58.1,46.0,59.0,51.0,44.0,94,78,61,29.95,29.88,8,2,15,0.97
2013-5-10,50.0,43.6,40.0,45.0,39.4,-99.9,94,90,81,29.98,29.86,9,3,19,1.68
2013-5-11,52.0,45.5,40.0,49.0,35.6,-99.9,96,73,40,30.01,29.76,11,4,24,0.01
2013-5-12,54.0,44.2,36.0,33.0,27.5,25.0,75,53,34,30.09,30.01,8,4,21,0.00
2013-5-13,61.0,46.9,31.0,38.0,32.8,28.0,91,62,33,30.16,29.89,8,2,11,0.00
2013-5-14,83.0,66.9,48.0,59.0,49.8,35.0,70,55,40,29.89,29.52,9,3,21,0.00
2013-5-15,77.0,70.1,61.0,62.0,48.3,41.0,66,47,28,29.84,29.53,6,2,13,0.00
2013-5-16,82.0,61.3,54.0,55.0,28.0,-99.9,77,51,35,29.97,29.83,5,1,13,0.00
2013-5-17,60.0,53.6,48.0,51.0,40.1,-99.9,93,71,37,30.11,29.96,7,2,18,0.70
2013-5-18,79.0,64.6,52.0,66.0,56.2,46.0,88,75,59,30.05,29.92,5,1,9,0.00
2013-5-19,85.0,70.5,59.0,68.0,61.9,56.0,91,76,54,29.94,29.64,14,2,24,0.04
2013-5-20,82.0,73.5,63.0,63.0,60.9,57.0,89,66,50,29.78,29.62,12,4,23,0.05
2013-5-21,78.0,69.9,63.0,65.0,60.2,56.0,87,72,53,29.68,29.59,9,4,19,0.00
2013-5-22,63.0,59.7,53.0,60.0,56.9,52.0,95,91,81,29.77,29.62,6,1,11,1.12
2013-5-23,60.0,51.8,44.0,52.0,43.9,36.0,95,77,42,30.29,29.77,9,3,16,0.92
2013-5-24,63.0,49.7,37.0,45.0,38.5,34.0,91,68,43,30.43,30.29,5,1,8,0.00
2013-5-25,63.0,53.9,45.0,42.0,38.6,35.0,75,57,41,30.38,30.28,7,1,12,0.00
2013-5-26,67.0,55.3,41.0,46.0,41.9,35.0,81,62,45,30.30,30.15,5,1,12,0.00
2013-5-27,55.0,53.1,50.0,52.0,46.8,40.0,94,80,58,30.16,29.89,7,2,20,0.03
2013-5-28,72.0,51.3,50.0,67.0,37.6,-99.9,97,81,82,29.89,29.69,4,1,14,0.56
2013-5-29,82.0,62.9,59.0,69.0,45.2,-99.9,96,70,63,29.89,29.76,9,2,19,0.04
2013-5-30,84.0,66.2,64.0,71.0,49.0,-99.9,95,71,59,29.89,29.70,15,4,27,0.67
2013-5-31,75.0,68.0,63.0,67.0,63.0,61.0,94,85,67,29.78,29.67,10,5,20,0.54
2013-6-1,78.0,62.8,63.0,66.0,45.4,-99.9,95,72,61,29.67,29.59,10,3,23,0.71
2013-6-2,64.0,56.2,49.0,58.0,46.1,41.0,88,70,51,30.00,29.66,8,2,16,0.30
2013-6-3,70.0,58.1,43.0,49.0,45.0,41.0,94,64,41,30.08,29.99,5,1,11,0.00
2013-6-4,70.0,59.5,51.0,55.0,49.0,45.0,91,69,51,30.16,30.06,7,1,14,0.10
2013-6-5,64.0,54.7,51.0,55.0,50.2,47.0,92,85,67,30.14,29.95,5,1,12,0.30
2013-6-6,60.0,54.5,51.0,54.0,51.2,47.0,95,89,80,29.96,29.92,5,1,11,0.44
2013-6-7,72.0,59.8,51.0,53.0,50.0,47.0,90,72,42,29.98,29.91,6,1,9,0.07
2013-6-8,72.0,61.9,52.0,54.0,50.7,46.0,88,69,45,30.00,29.91,5,1,9,0.01
2013-6-9,79.0,67.2,56.0,63.0,56.2,48.0,81,68,55,30.01,29.81,7,2,16,0.00
2013-6-10,81.0,70.3,61.0,66.0,62.1,58.0,90,76,58,29.83,29.76,4,1,9,0.00
2013-6-11,83.0,72.3,60.0,67.0,63.7,58.0,95,76,56,29.91,29.78,5,1,10,0.00
2013-6-12,76.0,68.3,60.0,68.0,64.5,58.0,95,88,75,29.90,29.62,10,2,25,1.18
2013-6-13,77.0,67.3,58.0,61.0,57.5,55.0,95,73,51,30.06,29.73,6,1,11,1.16
2013-6-14,78.0,65.7,54.0,61.0,55.3,50.0,94,71,53,30.14,29.99,5,1,11,0.00
2013-6-15,79.0,67.3,56.0,71.0,60.8,-99.9,95,83,67,30.07,29.80,7,2,13,1.07
2013-6-16,84.0,48.7,66.0,66.0,-1.2,-99.9,82,33,37,29.89,29.82,7,2,15,0.72
2013-6-17,86.0,72.2,60.0,63.0,58.2,52.0,83,64,36,29.97,29.85,8,2,16,0.00
2013-6-18,72.0,62.5,53.0,57.0,51.0,46.0,86,68,41,30.09,29.96,9,2,15,0.00
2013-6-19,78.0,64.2,48.0,56.0,50.0,45.0,89,62,39,30.14,30.06,7,1,12,0.00
2013-6-20,86.0,67.4,56.0,65.0,52.2,43.0,71,59,41,30.14,30.07,7,2,13,0.00
2013-6-22,79.0,58.2,68.0,72.0,30.7,-99.9,92,63,77,30.09,29.87,6,2,14,0.38
2013-6-23,85.0,48.1,69.0,75.0,3.9,-99.9,90,46,66,30.01,29.84,10,3,19,0.20
2013-6-24,80.0,47.1,69.0,71.0,5.2,-99.9,92,49,70,30.00,29.82,8,2,16,0.01
2013-6-25,83.0,39.9,69.0,74.0,-12.0,-99.9,92,41,69,29.93,29.78,6,1,13,0.44
2013-6-26,83.0,32.7,71.0,71.0,-29.1,-99.9,90,32,65,29.80,29.70,6,1,11,0.06
2013-6-27,86.0,49.0,70.0,73.0,5.1,-99.9,91,45,60,29.78,29.67,6,1,14,0.41
2013-6-28,76.0,70.9,65.0,66.0,63.0,60.0,91,77,61,29.72,29.61,7,2,16,0.05
2013-6-29,72.0,31.1,64.0,63.0,-29.8,-99.9,91,32,66,29.84,29.62,6,1,15,0.58
2013-6-30,77.0,67.8,57.0,60.0,53.8,48.0,79,62,39,30.04,29.83,7,2,16,0.00
2013-7-1,80.0,69.5,59.0,59.0,53.3,49.0,73,58,38,30.12,30.04,8,2,16,0.00
2013-7-2,75.0,65.7,58.0,54.0,50.3,46.0,83,59,38,30.12,30.07,7,2,14,0.00
2013-7-3,71.0,64.7,60.0,64.0,54.7,-99.9,93,77,66,30.08,30.01,6,1,12,0.07
2013-7-4,82.0,46.6,68.0,63.0,-2.8,-99.9,80,35,46,30.08,30.00,7,1,13,0.07
2013-7-5,84.0,74.2,63.0,68.0,63.8,60.0,92,72,52,30.06,29.98,10,2,20,0.01
2013-7-6,85.0,74.2,63.0,69.0,64.4,60.0,92,73,52,30.03,29.93,7,2,12,0.00
2013-7-7,87.0,72.0,66.0,73.0,55.3,-99.9,93,69,60,29.97,29.89,7,2,14,0.00
2013-7-8,86.0,48.3,72.0,76.0,7.4,-99.9,93,52,68,29.98,29.88,7,1,20,0.67
2013-7-9,84.0,23.8,77.0,75.0,-48.4,-99.9,89,24,74,30.00,29.80,10,2,15,0.56
2013-7-10,79.0,59.8,66.0,70.0,29.7,-99.9,88,52,49,30.01,29.82,7,2,15,0.01
2013-7-11,81.0,67.7,57.0,61.0,51.7,-99.9,93,64,45,30.11,30.01,5,1,8,0.00
2013-7-12,84.0,71.0,57.0,61.0,55.9,49.0,90,63,31,30.16,30.07,5,1,10,0.00
2013-7-13,85.0,72.5,59.0,65.0,60.0,54.0,87,66,48,30.16,30.08,7,1,12,0.00
2013-7-14,89.0,76.9,63.0,71.0,65.4,58.0,87,69,51,30.22,30.14,5,1,10,0.00
2013-7-15,92.0,79.4,68.0,76.0,69.9,64.0,89,74,54,30.27,30.21,4,0,11,0.00
2013-7-16,92.0,63.9,74.0,77.0,31.7,-99.9,91,55,59,30.28,30.21,5,1,10,0.00
2013-7-17,94.0,72.2,75.0,77.0,47.7,-99.9,91,61,53,30.29,30.14,6,1,11,0.00
2013-7-18,93.0,65.1,75.0,76.0,31.0,-99.9,91,51,53,30.16,29.88,8,2,16,0.00
2013-7-19,92.0,82.5,75.0,75.0,70.8,65.0,86,69,51,29.88,29.72,9,4,18,0.00
2013-7-20,85.0,74.0,65.0,69.0,61.7,-99.9,80,67,49,29.97,29.82,4,1,9,0.01
2013-7-21,81.0,52.0,60.0,68.0,21.8,-99.9,93,57,58,29.97,29.88,7,1,15,1.10
2013-7-22,84.0,40.2,76.0,72.0,-15.1,-99.9,81,35,63,29.89,29.62,10,2,18,0.00
2013-7-23,75.0,69.5,59.0,65.0,57.8,52.0,84,67,54,30.00,29.70,7,2,13,0.00
2013-7-24,74.0,63.7,53.0,55.0,52.4,50.0,90,68,46,30.08,29.99,4,1,9,0.00
2013-7-25,79.0,66.7,54.0,65.0,59.0,51.0,92,77,60,30.06,29.95,8,2,14,0.00
2013-7-26,76.0,62.9,62.0,68.0,48.1,-99.9,92,74,54,29.96,29.81,8,2,16,0.40
2013-7-27,61.0,56.1,51.0,56.0,48.4,45.0,88,76,62,29.94,29.85,6,2,16,0.02
2013-7-28,67.0,58.1,52.0,54.0,51.0,48.0,91,78,61,29.99,29.82,6,2,14,0.02
2013-7-29,74.0,63.1,54.0,59.0,54.4,49.0,86,74,58,30.17,29.99,4,1,14,0.00
2013-7-30,75.0,55.2,56.0,64.0,31.9,-99.9,93,65,62,30.18,30.08,5,1,11,0.00
2013-7-31,79.0,46.0,63.0,66.0,2.2,-99.9,92,47,61,30.09,29.94,8,1,15,0.00
2013-8-1,79.0,69.1,61.0,61.0,57.3,54.0,90,69,43,29.98,29.89,6,2,15,0.00
2013-8-2,81.0,62.5,60.0,66.0,39.0,-99.9,93,58,44,29.95,29.83,6,1,12,0.13
2013-8-3,78.0,68.6,56.0,58.0,54.4,51.0,89,62,42,30.11,29.95,5,1,13,0.12
2013-8-4,76.0,65.7,56.0,58.0,54.7,52.0,90,69,46,30.22,30.11,4,1,8,0.00
2013-8-5,73.0,62.2,55.0,63.0,54.5,-99.9,92,81,70,30.11,29.85,8,2,16,0.01
2013-8-6,84.0,51.0,65.0,70.0,7.9,-99.9,91,47,59,29.86,29.76,7,2,12,0.01
2013-8-7,78.0,66.8,66.0,69.0,51.5,-99.9,90,69,63,29.96,29.73,7,1,14,0.00
2013-8-8,79.0,61.2,62.0,61.0,38.2,-99.9,91,59,49,30.04,29.96,7,1,10,0.00
2013-8-9,82.0,69.2,58.0,64.0,57.3,51.0,80,67,47,30.05,29.96,5,1,11,0.00
2013-8-10,75.0,66.6,57.0,58.0,55.4,53.0,87,68,50,30.15,30.05,4,0,10,0.00
2013-8-11,70.0,33.0,57.0,65.0,-20.6,-99.9,92,43,81,30.13,30.02,5,0,8,0.22
2013-8-12,81.0,36.8,63.0,65.0,-20.8,-99.9,81,31,55,30.03,29.89,5,1,12,0.09
2013-8-13,71.0,61.1,52.0,58.0,47.6,-99.9,84,65,48,30.16,29.99,6,2,14,0.02
2013-8-14,73.0,59.7,48.0,54.0,48.0,-99.9,92,70,47,30.22,30.11,5,1,8,0.00
2013-8-15,77.0,58.3,54.0,58.0,37.6,-99.9,90,66,44,30.14,30.08,4,0,8,0.00
2013-8-16,82.0,66.9,55.0,60.0,51.5,-99.9,92,65,41,30.19,30.11,4,1,9,0.00
2013-8-17,81.0,67.1,55.0,60.0,54.2,-99.9,91,68,43,30.25,30.15,5,1,10,0.00
2013-8-18,81.0,59.5,55.0,61.0,35.0,-99.9,93,59,45,30.22,30.09,6,1,12,0.00
2013-8-19,82.0,48.0,57.0,65.0,6.9,-99.9,92,51,51,30.09,30.00,6,1,13,0.00
2013-8-20,86.0,45.0,62.0,68.0,-2.2,-99.9,91,42,53,30.07,29.98,8,2,18,0.00
2013-8-21,89.0,76.7,68.0,72.0,67.6,64.0,88,75,57,30.01,29.89,9,3,19,0.00
2013-8-22,81.0,54.6,63.0,71.0,24.4,-99.9,89,58,61,30.12,29.98,5,1,14,0.10
2013-8-23,83.0,69.8,57.0,63.0,58.0,51.0,87,68,47,30.19,30.11,6,0,10,0.00
2013-8-24,83.0,55.5,57.0,69.0,24.4,-99.9,91,56,59,30.25,30.15,10,1,14,0.00
2013-8-25,89.0,76.6,66.0,74.0,66.6,60.0,87,72,58,30.18,30.07,12,3,22,0.00
2013-8-26,90.0,78.1,67.0,77.0,69.6,64.0,89,76,62,30.12,29.93,8,2,15,0.00
2013-8-27,93.0,48.5,73.0,77.0,2.9,-99.9,89,45,58,29.95,29.79,9,2,19,0.00
2013-8-28,84.0,78.7,69.0,71.0,69.3,65.0,89,74,64,30.04,29.99,5,1,12,0.00
2013-8-29,87.0,37.3,68.0,71.0,-21.5,-99.9,90,32,58,30.08,29.96,6,1,16,0.00
2013-8-30,90.0,49.7,67.0,78.0,7.1,-99.9,90,49,66,29.97,29.76,6,2,14,0.00
2013-8-31,81.0,69.5,62.0,66.0,60.9,-99.9,89,77,61,29.88,29.78,5,1,9,0.00
2013-9-1,84.0,27.5,64.0,71.0,-41.2,-99.9,89,24,48,29.82,29.69,6,1,13,0.00
2013-9-2,70.0,64.0,57.0,61.0,55.5,50.0,86,75,57,30.00,29.82,5,1,10,0.00
2013-9-3,75.0,58.3,48.0,56.0,42.6,-99.9,92,67,50,30.09,29.98,5,1,10,0.00
2013-9-4,84.0,47.6,50.0,65.0,9.5,-99.9,92,50,51,30.13,30.01,4,1,9,0.00
2013-9-5,76.0,65.5,55.0,59.0,54.2,47.0,90,69,50,30.27,30.14,7,2,13,0.00
2013-9-6,85.0,66.4,48.0,68.0,57.2,45.0,90,74,55,30.22,29.97,7,2,13,0.00
2013-9-7,88.0,72.6,66.0,72.0,63.9,-99.9,88,78,57,29.99,29.87,4,1,11,0.05
2013-9-8,71.0,66.2,61.0,66.0,60.9,56.0,88,83,77,30.07,29.94,6,2,16,0.00
2013-9-9,90.0,48.0,64.0,77.0,-9.4,-99.9,89,38,62,29.96,29.75,7,2,15,0.01
2013-9-10,95.0,81.2,69.0,70.0,66.3,63.0,85,63,39,29.94,29.79,9,2,21,0.00
2013-9-11,81.0,42.8,69.0,68.0,-4.9,-99.9,91,43,61,30.08,29.94,6,1,18,0.54
2013-9-12,74.0,47.4,58.0,63.0,9.3,-99.9,90,46,48,30.13,29.96,6,1,14,0.00
2013-9-13,64.0,54.8,47.0,46.0,42.7,40.0,84,65,41,30.22,30.14,6,2,13,0.00
2013-9-14,70.0,54.8,40.0,49.0,42.9,-99.9,91,69,45,30.16,29.98,5,1,12,0.00
2013-9-15,62.0,35.8,52.0,56.0,-6.4,-99.9,91,51,70,30.23,29.97,7,1,13,0.54
2013-9-16,64.0,53.2,43.0,49.0,43.9,39.0,86,72,52,30.40,30.23,7,2,12,0.01
2013-9-17,69.0,55.8,42.0,54.0,48.2,38.0,90,77,59,30.34,30.09,7,1,12,0.00
2013-9-18,67.0,55.4,57.0,63.0,44.2,-99.9,89,78,82,30.09,29.88,4,1,9,0.03
2013-9-19,84.0,8.4,68.0,73.0,-82.2,-99.9,82,7,67,29.89,29.70,10,2,30,2.34
2013-9-20,72.0,22.4,58.0,60.0,-46.2,-99.9,75,24,65,29.81,29.70,8,2,15,1.97
2013-9-21,59.0,53.0,47.0,50.0,42.1,-99.9,78,69,61,29.94,29.81,7,1,19,0.04
2013-9-22,62.0,50.7,41.0,46.0,40.3,35.0,78,68,50,30.08,29.94,4,1,8,0.00
2013-9-23,68.0,53.3,43.0,53.0,43.4,37.0,78,69,57,30.12,30.02,5,1,11,0.00
2013-9-24,71.0,40.3,48.0,56.0,1.5,-99.9,81,47,56,30.05,29.96,5,1,10,0.01
2013-9-25,71.0,47.2,47.0,55.0,17.1,-99.9,77,54,57,30.00,29.94,5,1,9,0.01
2013-9-26,76.0,43.0,49.0,58.0,2.9,-99.9,73,43,50,30.08,29.98,6,1,10,0.01
2013-9-27,81.0,53.7,52.0,59.0,19.1,-99.9,65,44,46,30.14,30.03,8,1,13,0.00
2013-9-28,80.0,68.1,56.0,62.0,49.9,-99.9,60,55,53,30.05,29.80,12,5,28,0.00
2013-9-29,70.0,32.3,52.0,48.0,-25.0,-99.9,63,27,41,30.06,29.97,4,0,7,0.09
2013-9-30,71.0,64.6,56.0,51.0,47.6,40.0,62,55,46,29.95,29.80,10,4,18,0.00
2013-10-1,71.0,68.4,66.0,55.0,51.9,49.0,57,56,54,29.91,29.87,0,0,5,0.00
2013-10-2,75.0,55.2,58.0,52.0,21.8,-99.9,63,42,33,30.11,29.97,4,1,8,0.00
2013-10-3,62.0,42.3,56.0,46.0,5.4,-99.9,64,44,52,29.97,29.85,1,0,7,0.14
2013-10-4,-200.0,0.0,200.0,-99.9,-99.9,-99.9,0,0,100,30.03,29.86,5,1,11,0.56
2013-10-14,61.0,56.4,49.0,46.0,41.4,33.0,60,57,53,30.39,30.21,6,2,13,0.00
2013-10-15,-200.0,0.0,200.0,-99.9,-99.9,-99.9,0,0,100,29.81,29.71,6,3,15,0.39
2013-10-17,54.0,49.9,46.0,40.0,36.0,31.0,62,58,55,29.85,29.77,6,1,12,0.00
2013-10-18,49.0,46.3,44.0,34.0,31.9,29.0,60,57,54,29.91,29.85,8,2,15,0.00
2013-10-19,52.0,46.3,45.0,36.0,28.8,-99.9,63,56,54,29.76,29.69,7,4,19,0.00
2013-10-20,48.0,9.5,47.0,36.0,-73.2,-99.9,62,12,54,29.82,29.67,6,2,11,0.09
2013-10-21,42.0,38.2,33.0,31.0,27.3,24.0,69,65,58,29.91,29.77,9,4,21,0.09
2013-10-22,46.0,37.2,27.0,32.0,26.3,16.0,70,65,56,29.93,29.87,4,1,9,0.00
2013-10-23,43.0,36.4,29.0,28.0,24.5,16.0,70,62,49,29.97,29.91,7,2,13,0.00
2013-10-24,42.0,36.7,31.0,29.0,26.0,20.0,70,65,57,30.24,29.97,7,2,18,0.00
2013-10-25,50.0,44.7,30.0,32.0,28.9,17.0,70,54,48,30.32,29.85,11,6,24,0.00
2013-10-26,49.0,45.1,41.0,37.0,30.2,-99.9,68,58,49,30.03,29.72,11,4,28,0.00
2013-10-27,54.0,43.4,31.0,34.0,29.9,19.0,69,60,43,30.02,29.86,11,3,20,0.00
2013-10-28,43.0,39.3,36.0,32.0,28.1,-99.9,70,66,62,30.40,30.00,8,3,19,0.00
2013-10-29,53.0,41.9,35.0,42.0,31.5,25.0,70,66,60,30.38,30.16,4,1,9,0.00
2013-10-30,-200.0,0.0,200.0,-99.9,-99.9,-99.9,0,0,100,30.07,29.72,6,1,10,0.00
2013-10-31,-200.0,0.0,200.0,-99.9,-99.9,-99.9,0,0,100,29.73,29.23,9,2,19,0.99
2013-11-1,-200.0,0.0,200.0,-99.9,-99.9,-99.9,48,13,47,29.69,29.27,6,2,20,0.07
2013-11-2,-200.0,0.0,200.0,-99.9,-99.9,-99.9,48,4,48,30.11,29.81,4,1,9,0.08
2013-11-3,50.0,19.1,42.0,39.0,-43.2,-99.9,72,28,59,30.26,30.17,8,1,15,0.00
2013-11-4,53.0,48.4,43.0,43.0,38.9,33.0,71,69,64,30.19,30.00,10,3,23,0.00
2013-11-5,55.0,10.0,50.0,45.0,-73.4,-99.9,69,12,58,30.20,29.83,9,3,21,0.38
2013-11-6,43.0,9.7,33.0,35.0,-66.9,-99.9,75,18,67,30.11,29.67,11,5,20,0.33
2013-11-7,42.0,34.8,27.0,32.0,26.6,17.0,75,72,61,30.19,30.12,5,2,12,0.06
2013-11-8,45.0,40.8,29.0,35.0,31.9,19.0,72,70,64,30.22,29.77,8,3,19,0.00
2013-11-9,51.0,45.1,40.0,40.0,33.5,-99.9,71,66,56,30.02,29.70,13,6,26,0.00
2013-11-10,47.0,41.9,39.0,34.0,30.8,29.0,72,65,51,30.28,30.03,7,3,15,0.00
2013-11-11,43.0,32.7,25.0,34.0,23.2,14.0,74,68,61,30.51,30.02,5,2,12,0.09
2013-11-12,29.0,23.6,19.0,18.0,14.6,12.0,75,68,52,30.67,30.51,7,2,15,0.02
2013-11-13,41.0,29.3,18.0,21.0,16.6,11.0,75,60,39,30.50,30.01,14,5,28,0.00
2013-11-14,46.0,37.5,29.0,31.0,26.6,20.0,72,65,53,30.00,29.83,9,4,20,0.00
2013-11-15,54.0,42.3,31.0,40.0,31.9,19.0,71,67,59,29.89,29.83,8,2,13,0.00
2013-11-16,56.0,0.8,56.0,-99.9,-99.9,-99.9,47,1,47,29.74,29.44,13,8,29,0.05
2013-11-17,44.0,7.3,41.0,36.0,-76.9,-99.9,73,12,66,29.61,29.13,12,4,27,0.92
2013-11-18,40.0,33.6,27.0,32.0,25.6,20.0,76,72,68,30.21,29.62,12,6,27,0.01
2013-11-19,39.0,30.2,21.0,28.0,21.0,11.0,76,68,61,30.33,30.21,6,1,9,0.00
2013-11-20,41.0,37.9,31.0,31.0,28.2,20.0,72,68,62,30.19,30.06,10,3,18,0.00
2013-11-21,43.0,42.1,41.0,33.0,31.3,29.0,68,66,62,30.17,30.11,2,0,6,0.00
2013-11-22,34.0,30.5,26.0,25.0,21.2,14.0,73,68,61,30.43,30.36,6,3,12,0.04
2013-11-23,26.0,17.2,12.0,17.0,5.6,-99.9,70,62,55,30.66,30.35,8,4,18,0.00
2013-11-24,25.0,17.6,9.0,10.0,6.3,3.0,77,62,43,30.65,30.21,12,4,22,0.00
2013-11-25,31.0,26.2,20.0,23.0,16.4,9.0,74,66,59,30.19,29.95,11,5,26,0.00
2013-11-27,26.0,19.0,12.0,16.0,10.7,5.0,76,70,56,30.22,30.15,7,2,13,0.00
2013-11-28,28.0,22.8,16.0,18.0,15.0,9.0,75,72,64,30.46,30.11,6,1,11,0.00
2013-11-29,29.0,21.7,10.0,20.0,13.4,1.0,73,69,63,30.58,30.30,9,1,12,0.00
2013-11-30,42.0,33.2,27.0,32.0,22.9,-99.9,72,68,63,30.30,29.99,11,3,16,0.01
2013-12-1,39.0,32.9,26.0,29.0,23.4,16.0,72,68,60,30.11,29.95,5,0,8,0.00
2013-12-2,40.0,37.8,28.0,31.0,28.5,16.0,72,69,60,29.94,29.75,2,0,9,0.00
2013-12-3,-200.0,0.0,200.0,-99.9,-99.9,-99.9,48,2,48,29.72,29.66,5,2,10,0.32
2013-12-4,-200.0,0.0,200.0,-99.9,-99.9,-99.9,0,0,100,29.72,29.39,10,3,25,0.04
2013-12-5,34.0,15.6,14.0,27.0,-15.0,-99.9,76,54,64,30.22,29.57,10,5,20,0.01